• Join FlightAware (Why Join?)
  • Login
  • US Flag 
05:20AM EST


 

Airport Tracker/Info


-or-


 

Live Flight TrackerFlight Track Log ✈ ASQ4120 ✈ 07-May-2013 ✈ KCLE - KATL

Flight Track Log - Related Links

Times and Time Zones

All times are in EDT time to prevent confusion due to time zone crossing. See the ASQ4120 flight status page for this flight to view local times or setup timezone preferences in your user account.

Time Position Orientation Groundspeed Altitude Reporting Facility
EDT Latitude Longitude Course Direction KTS MPH feet Rate Location/Type
07:16PM 41.4133 -81.8344 169° South 176 203 2,000  Level Cleveland Center
07:17PM 41.4200 -81.7767 81° East 202 232 3,800 1,920 Climbing Cleveland Center
07:18PM 41.3956 -81.7344 128° Southeast 252 290 4,900 1,680 Climbing Cleveland Center
07:19PM 41.3247 -81.7250 174° South 271 312 6,600 2,340 Climbing Cleveland Center
07:20PM 41.2478 -81.7181 176° South 278 320 9,600 2,100 Climbing Cleveland Center
07:21PM 41.1764 -81.7528 200° South 272 313 10,900 1,200 Climbing Cleveland Center
07:22PM 40.9231 -82.0391 169° South  Level FlightAware Approximate
07:22PM 41.0961 -81.8450 221° Southwest 334 384 12,000  Level Cleveland Center
07:23PM 41.0097 -81.9342 218° Southwest 381 438 13,600 1,800 Climbing Cleveland Center
07:24PM 40.9272 -82.0231 219° Southwest 389 448 15,700 1,680 Climbing Cleveland Center
07:25PM 40.8431 -82.0872 210° Southwest 394 453 17,000 1,380 Climbing Cleveland Center
07:27PM 40.6031 -82.2619 209° Southwest 406 467 20,500 1,380 Climbing Indianapolis Center
07:28PM 40.5014 -82.3350 209° Southwest 413 475 21,900 1,320 Climbing Indianapolis Center
07:29PM 40.3983 -82.4108 209° Southwest 420 483 23,300 1,320 Climbing Indianapolis Center
07:30PM 40.2939 -82.4847 208° Southwest 423 487 24,700 1,440 Climbing Indianapolis Center
07:31PM 40.1758 -82.5694 209° Southwest 425 489 26,300 1,440 Climbing Indianapolis Center
07:32PM 40.0617 -82.5939 189° South 413 475 27,700 1,320 Climbing Indianapolis Center
07:34PM 39.9456 -82.6017 183° South 411 473 29,100 1,320 Climbing Indianapolis Center
07:35PM 39.8300 -82.6100 183° South 411 473 30,500 1,320 Climbing Indianapolis Center
07:36PM 39.7131 -82.6178 183° South 414 476 31,900 1,320 Climbing Indianapolis Center
07:37PM 39.5944 -82.6261 183° South 420 483 33,300 1,260 Climbing Indianapolis Center
07:38PM 39.4739 -82.6331 183° South 426 490 34,600 780 Climbing Indianapolis Center
07:39PM 39.3511 -82.6414 183° South 431 496 35,000 240 Climbing Indianapolis Center
07:40PM 39.2242 -82.6497 183° South 444 511 35,100 480 Climbing Indianapolis Center
07:41PM 39.0967 -82.6578 183° South 448 516 36,000 420 Climbing Indianapolis Center
07:42PM 38.9725 -82.6661 183° South 448 516 36,000  Level Indianapolis Center
07:43PM 38.8250 -82.6764 183° South 443 510 36,000  Level Indianapolis Center
07:44PM 38.7006 -82.6844 183° South 448 516 36,000  Level Indianapolis Center
07:45PM 38.5767 -82.6931 183° South 448 516 36,000  Level Indianapolis Center
07:46PM 38.4519 -82.7006 183° South 447 514 36,000  Level Indianapolis Center
07:47PM 38.3242 -82.7094 183° South 456 525 36,000  Level Indianapolis Center
07:48PM 38.1756 -82.7186 183° South 458 527 36,000  Level Indianapolis Center
07:49PM 38.0475 -82.7286 184° South 458 527 36,000  Level Indianapolis Center
07:50PM 37.9186 -82.7361 183° South 462 532 36,000  Level Indianapolis Center
07:51PM 37.7908 -82.7447 183° South 459 528 36,000  Level Indianapolis Center
07:52PM 37.6642 -82.7631 187° South 458 527 36,000  Level Indianapolis Center
07:53PM 37.5389 -82.7831 187° South 454 522 36,000  Level Indianapolis Center
07:54PM 37.4131 -82.8031 187° South 454 522 36,000  Level Indianapolis Center
07:55PM 37.2661 -82.8253 187° South 455 524 36,000  Level Indianapolis Center
07:56PM 37.1375 -82.8458 187° South 462 532 36,000  Level Indianapolis Center
07:57PM 37.0578 -82.8606 188° South 474 545 36,000  Level Atlanta Center
07:58PM 36.9267 -82.8833 188° South 474 545 36,000  Level Atlanta Center
07:58PM 36.8789 -82.8853 182° South 470 541 36,000  Level Indianapolis Center
07:59PM 36.7767 -82.9036 188° South 489 563 36,000  Level Atlanta Center
08:00PM 36.6517 -82.9236 187° South 475 547 36,000  Level Atlanta Center
08:01PM 36.5247 -82.9408 186° South 461 531 36,000  Level Atlanta Center
08:02PM 36.4019 -82.9606 187° South 456 525 36,000  Level Atlanta Center
08:03PM 36.2831 -82.9775 187° South 438 504 36,000  Level Atlanta Center
08:04PM 36.1603 -82.9972 187° South 438 504 36,000 -480 Level Atlanta Center
08:05PM 36.0353 -83.0167 187° South 443 510 35,100 -540 Descending Atlanta Center
08:06PM 35.9122 -83.0336 186° South 449 517 35,000 -60 Descending Atlanta Center
08:07PM 35.7853 -83.0633 191° South 455 524 35,000  Level Atlanta Center
08:08PM 35.6833 -83.1106 201° Southwest 448 516 35,000 -600 Level Atlanta Center
08:09PM 35.5692 -83.1631 201° Southwest 448 516 33,900 -1,320 Descending Atlanta Center
08:10PM 35.4528 -83.2203 202° Southwest 448 516 32,400 -1,500 Descending Atlanta Center
08:11PM 35.3383 -83.2750 201° Southwest 448 516 30,900 -1,500 Descending Atlanta Center
08:12PM 35.2217 -83.3269 200° South 448 516 29,400 -1,560 Descending Atlanta Center
08:13PM 35.0822 -83.3917 201° Southwest 468 539 27,800 -1,500 Descending Atlanta Center
08:14PM 34.9658 -83.4456 201° Southwest 468 539 26,400 -1,500 Descending Atlanta Center
08:15PM 34.8553 -83.4919 199° South 468 539 24,900 -1,380 Descending Atlanta Center
08:16PM 34.7325 -83.5536 202° Southwest 468 539 23,700 -1,560 Descending Atlanta Center
08:17PM 34.6178 -83.6047 200° South 458 527 21,800 -1,980 Descending Atlanta Center
08:18PM 34.5053 -83.6581 201° Southwest 444 511 19,800 -2,040 Descending Atlanta Center
08:19PM 34.3950 -83.7089 201° Southwest 435 501 17,800 -2,160 Descending Atlanta Center
08:20PM 34.2886 -83.7547 200° South 422 486 15,500 -2,340 Descending Atlanta Center
08:21PM 34.1844 -83.8028 201° Southwest 404 465 13,200 -1,800 Descending Atlanta Center
08:22PM 34.0864 -83.8506 202° Southwest 386 444 12,000 -720 Descending Atlanta Center
08:23PM 34.0333 -83.9000 218° Southwest 304 350 12,000 -900 Level Atlanta TRACON
08:24PM 33.9833 -83.9667 228° Southwest 291 335 10,600 -1,500 Descending Atlanta TRACON
08:25PM 33.9000 -84.0333 214° Southwest 286 329 9,000 -1,200 Descending Atlanta TRACON
08:26PM 33.8500 -84.0833 220° Southwest 293 337 8,200 -900 Descending Atlanta TRACON
08:26PM 33.8233 -84.0939 198° South 294 338 7,900 -1,380 Descending Atlanta Center
08:27PM 33.7442 -84.0989 183° South 284 327 6,500 -1,140 Descending Atlanta Center
08:28PM 33.6731 -84.1061 185° South 268 308 5,700 -900 Descending Atlanta Center
08:29PM 33.6500 -84.1333 225° Southwest 220 253 5,000 -960 Descending Atlanta TRACON
08:30PM 33.6500 -84.2167 270° West 200 230 4,000 -900 Descending Atlanta TRACON
08:31PM 33.6500 -84.2833 270° West 181 208 3,200 -900 Descending Atlanta TRACON
08:32PM 33.6500 -84.3167 270° West 153 176 2,400 -840 Descending Atlanta TRACON
08:33PM 33.6500 -84.3667 270° West 119 137 1,700 -720 Descending Atlanta TRACON
08:35PM 33.6367 -84.4279 270° West  Level Estimated
08:42PM 33.6367 -84.4279 64° Northeast  Level Estimated